Time;durP1;ratioP1;P1;durP2;ratioP2;P2;SDS_P1;SDS_P2;PMS_P1;PMS_P2;Temp;Humidity;BMP_temperature;BMP_pressure;BME280_temperature;BME280_humidity;BME280_pressure;Samples;Min_cycle;Max_cycle;Signal;HPM_P1;HPM_P2
2022/07/28 00:00:24;;;;;;;9.25;7.13;;;;;;;25.49;61.24;97901.44;4992772;28;20186;-63
2022/07/28 00:02:49;;;;;;;7.85;7.18;;;;;;;25.54;60.70;97883.88;4992617;28;20269;-64
2022/07/28 00:05:15;;;;;;;9.18;7.40;;;;;;;25.46;61.32;97897.38;4993054;28;20175;-63
2022/07/28 00:07:40;;;;;;;8.05;7.32;;;;;;;25.45;62.02;97902.88;4992824;28;20619;-63
2022/07/28 00:10:06;;;;;;;9.82;7.32;;;;;;;25.41;62.64;97901.66;4992824;28;20250;-63
2022/07/28 00:12:32;;;;;;;8.27;7.45;;;;;;;25.44;61.74;97902.09;4991384;28;20278;-64
2022/07/28 00:14:57;;;;;;;8.10;7.22;;;;;;;25.70;58.06;97907.25;4992601;28;20253;-64
2022/07/28 00:17:23;;;;;;;8.82;7.95;;;;;;;25.94;56.45;97906.53;4995613;28;20702;-63
2022/07/28 00:19:49;;;;;;;8.68;7.90;;;;;;;26.23;55.28;97918.38;4999190;28;20175;-63
2022/07/28 00:22:15;;;;;;;10.48;7.97;;;;;;;26.34;54.65;97918.47;4998117;28;20179;-63
2022/07/28 00:24:40;;;;;;;8.88;7.60;;;;;;;26.38;54.28;97922.34;4998183;28;20704;-62
2022/07/28 00:27:06;;;;;;;8.57;7.70;;;;;;;26.38;54.51;97909.06;4999013;28;20171;-63
2022/07/28 00:29:31;;;;;;;11.05;7.72;;;;;;;26.35;54.67;97922.75;4998986;28;20175;-63
2022/07/28 00:31:57;;;;;;;9.27;8.40;;;;;;;26.24;54.38;97915.50;4998862;28;20190;-63
2022/07/28 00:34:22;;;;;;;10.60;8.18;;;;;;;26.18;54.85;97916.34;4999064;28;20195;-63
2022/07/28 00:36:47;;;;;;;12.70;8.63;;;;;;;26.23;55.02;97915.72;4999127;28;20644;-62
2022/07/28 00:39:13;;;;;;;10.30;9.23;;;;;;;26.23;54.42;97921.81;4997661;28;20186;-62
2022/07/28 00:41:38;;;;;;;10.00;8.70;;;;;;;26.28;54.24;97922.00;4997679;28;20187;-62
2022/07/28 00:44:06;;;;;;;10.13;9.10;;;;;;;26.40;53.90;97930.88;4999000;28;20680;-62
2022/07/28 00:46:31;;;;;;;10.80;8.50;;;;;;;26.31;55.35;97932.16;4999166;28;20613;-62
2022/07/28 00:48:57;;;;;;;10.32;8.20;;;;;;;26.05;55.74;97926.22;4997617;28;20182;-63
2022/07/28 00:51:25;;;;;;;10.60;8.70;;;;;;;26.08;55.64;97931.94;4998804;28;20264;-62
2022/07/28 00:53:51;;;;;;;9.43;8.43;;;;;;;26.07;56.01;97940.09;4999075;28;20171;-62
2022/07/28 00:56:18;;;;;;;9.65;8.65;;;;;;;25.98;56.09;97931.59;4998802;28;20179;-63
2022/07/28 00:58:46;;;;;;;10.82;8.90;;;;;;;25.79;57.68;97926.38;4998695;28;20179;-63
2022/07/28 01:01:18;;;;;;;9.80;8.90;;;;;;;25.50;59.61;97943.63;4997511;28;20684;-62
2022/07/28 01:03:49;;;;;;;9.73;8.80;;;;;;;25.30;60.80;97939.44;4998920;28;20187;-63
2022/07/28 01:06:20;;;;;;;8.52;7.65;;;;;;;25.22;61.11;97940.44;4998759;28;20155;-63
2022/07/28 01:09:12;;;;;;;9.00;8.10;;;;;;;25.15;61.36;97942.28;4998999;28;20262;-63
2022/07/28 01:12:11;;;;;;;9.70;7.75;;;;;;;24.84;63.11;97928.91;4997806;28;20155;-62
2022/07/28 01:15:00;;;;;;;8.13;7.40;;;;;;;25.00;62.08;97930.28;4988018;28;20672;-63
2022/07/28 01:17:37;;;;;;;8.48;7.68;;;;;;;25.39;58.96;97941.63;4998706;28;20160;-62
2022/07/28 01:20:22;;;;;;;14.07;8.27;;;;;;;25.52;58.23;97920.38;4998678;28;20163;-63
2022/07/28 01:23:23;;;;;;;12.57;7.93;;;;;;;25.31;58.27;97898.69;4998709;28;20618;-62
2022/07/28 01:26:06;;;;;;;9.95;8.15;;;;;;;25.44;58.51;97928.59;4998512;28;20167;-63
2022/07/28 01:28:38;;;;;;;9.18;8.38;;;;;;;25.17;59.59;97926.19;4996503;28;20221;-62
2022/07/28 01:31:06;;;;;;;8.93;8.02;;;;;;;25.17;60.06;97931.47;4995772;28;20175;-62
2022/07/28 01:33:39;;;;;;;9.05;8.00;;;;;;;25.26;59.48;97935.56;4995226;28;20722;-62
2022/07/28 01:36:16;;;;;;;9.38;8.27;;;;;;;25.57;57.89;97931.16;4994161;28;20167;-63
2022/07/28 01:38:44;;;;;;;11.25;8.73;;;;;;;25.60;57.67;97928.09;4995434;28;20158;-62
2022/07/28 01:41:31;;;;;;;9.90;8.95;;;;;;;25.80;56.84;97931.47;4995743;28;20680;-62
2022/07/28 01:44:10;;;;;;;10.30;9.07;;;;;;;25.59;57.73;97931.75;4995426;28;20180;-63
2022/07/28 01:46:37;;;;;;;9.55;8.73;;;;;;;25.47;57.95;97930.78;4995607;28;20170;-62
2022/07/28 01:49:03;;;;;;;9.73;8.50;;;;;;;25.54;58.18;97928.94;4995353;28;20561;-63
2022/07/28 01:51:29;;;;;;;8.05;7.20;;;;;;;25.57;58.42;97939.13;4995061;28;20656;-62
2022/07/28 01:53:58;;;;;;;10.73;8.27;;;;;;;25.63;57.75;97932.97;4995024;28;20595;-62
2022/07/28 01:56:26;;;;;;;9.80;8.85;;;;;;;25.67;57.90;97939.47;4993756;28;20179;-63
2022/07/28 01:58:54;;;;;;;9.70;8.50;;;;;;;25.67;58.01;97944.75;4993657;28;20691;-64
2022/07/28 02:01:22;;;;;;;8.48;7.43;;;;;;;25.55;59.37;97935.84;4995089;28;20212;-63
2022/07/28 02:03:50;;;;;;;10.00;8.48;;;;;;;25.57;58.54;97941.78;4994791;28;20199;-63
2022/07/28 02:06:18;;;;;;;8.80;8.00;;;;;;;25.62;58.43;97941.94;4994921;28;20179;-62
2022/07/28 02:08:45;;;;;;;8.07;7.38;;;;;;;25.69;58.47;97945.38;4995107;28;20207;-63
2022/07/28 02:13:56;;;;;;;7.75;6.35;;;;;;;25.59;59.75;97952.97;4994881;28;20235;-62
2022/07/28 02:16:24;;;;;;;7.63;6.75;;;;;;;25.36;60.79;97950.00;4994630;28;20606;-62
2022/07/28 02:18:52;;;;;;;8.27;7.55;;;;;;;25.08;62.25;97952.06;4994745;28;20210;-62
2022/07/28 02:21:20;;;;;;;8.45;7.25;;;;;;;24.97;63.11;97944.75;4994508;28;20172;-62
2022/07/28 02:23:47;;;;;;;7.80;7.00;;;;;;;24.76;64.07;97949.47;4994393;28;20694;-62
2022/07/28 02:26:16;;;;;;;8.43;7.65;;;;;;;24.68;64.18;97952.34;4994390;28;20712;-62
2022/07/28 02:28:45;;;;;;;8.57;7.72;;;;;;;24.80;63.52;97956.81;4994391;28;20178;-62
2022/07/28 02:31:23;;;;;;;8.15;7.40;;;;;;;24.97;62.63;97959.84;4994349;28;20246;-62
2022/07/28 02:33:53;;;;;;;8.98;8.13;;;;;;;24.72;64.98;97964.94;4994429;28;20202;-63
2022/07/28 02:36:31;;;;;;;9.00;7.75;;;;;;;24.48;65.91;97968.19;4994443;28;20160;-63
2022/07/28 02:39:02;;;;;;;9.38;8.48;;;;;;;24.56;64.34;97964.53;4994262;28;20170;-62
2022/07/28 02:41:31;;;;;;;8.73;7.93;;;;;;;24.75;63.63;97969.84;5009107;28;20214;-63
2022/07/28 02:44:10;;;;;;;9.27;8.38;;;;;;;24.64;64.29;97967.81;4993973;28;20203;-63
2022/07/28 02:46:41;;;;;;;9.25;7.55;;;;;;;24.20;66.54;97956.97;4994306;28;20183;-63
2022/07/28 02:49:15;;;;;;;10.23;7.90;;;;;;;23.97;68.12;97957.53;4994287;28;20190;-63
2022/07/28 02:51:43;;;;;;;8.63;7.93;;;;;;;23.79;68.89;97961.50;4993947;28;20160;-62
2022/07/28 02:54:10;;;;;;;9.18;7.85;;;;;;;23.90;68.93;97956.69;4992629;28;20732;-63
2022/07/28 02:56:37;;;;;;;7.80;7.00;;;;;;;23.79;69.45;97953.56;4992613;28;20179;-62
2022/07/28 02:59:03;;;;;;;9.50;8.35;;;;;;;23.84;68.91;97943.22;4994228;28;20625;-62
2022/07/28 03:01:29;;;;;;;9.07;8.18;;;;;;;23.85;69.07;97952.78;4993743;28;20168;-63
2022/07/28 03:03:55;;;;;;;8.95;8.05;;;;;;;24.01;68.31;97953.47;4993968;28;20198;-63
2022/07/28 03:06:22;;;;;;;9.82;8.98;;;;;;;24.21;66.09;97953.28;4993690;28;20249;-63
2022/07/28 03:08:49;;;;;;;14.68;9.93;;;;;;;24.45;63.92;97958.00;4993924;28;20271;-63
2022/07/28 03:11:15;;;;;;;10.10;9.20;;;;;;;24.49;63.59;97958.41;4993533;28;20266;-63
2022/07/28 03:13:40;;;;;;;11.63;10.13;;;;;;;24.49;63.26;97959.22;4992329;28;20258;-63
2022/07/28 03:16:06;;;;;;;12.48;10.07;;;;;;;24.51;62.64;97969.59;4993528;28;20262;-63
2022/07/28 03:18:32;;;;;;;10.95;9.95;;;;;;;24.51;62.42;97953.72;4992229;28;20269;-63
2022/07/28 03:20:57;;;;;;;12.02;9.98;;;;;;;24.45;62.69;97965.13;4993412;28;20665;-62
2022/07/28 03:23:28;;;;;;;11.02;9.43;;;;;;;24.40;62.76;97968.38;4993339;28;20199;-62
2022/07/28 03:25:59;;;;;;;10.88;9.95;;;;;;;24.39;62.96;97969.38;4992197;28;20155;-62
2022/07/28 03:28:27;;;;;;;11.38;9.18;;;;;;;24.38;63.33;97972.25;4993268;28;20167;-62
2022/07/28 03:31:08;;;;;;;11.05;10.00;;;;;;;24.31;62.50;97974.88;4993257;28;20684;-62
2022/07/28 03:33:34;;;;;;;10.40;9.40;;;;;;;24.27;63.25;97968.34;4993014;28;20325;-62
2022/07/28 03:36:05;;;;;;;10.82;9.85;;;;;;;24.21;63.42;97969.16;4993563;28;20298;-62
2022/07/28 03:38:50;;;;;;;10.95;9.85;;;;;;;24.28;63.56;97961.25;4993317;28;20159;-62
2022/07/28 03:41:17;;;;;;;10.38;9.48;;;;;;;24.21;63.55;97966.50;4991838;28;20636;-62
2022/07/28 03:43:43;;;;;;;11.25;10.25;;;;;;;24.14;63.86;97967.53;4992961;28;20194;-62
2022/07/28 03:46:09;;;;;;;11.70;10.15;;;;;;;24.09;63.25;97972.59;4991952;28;20175;-62
2022/07/28 03:48:34;;;;;;;11.10;9.95;;;;;;;24.09;63.74;97972.59;4992973;28;20174;-62
2022/07/28 03:51:00;;;;;;;12.75;10.88;;;;;;;24.00;63.75;97973.00;4991616;28;20194;-62
2022/07/28 03:53:27;;;;;;;10.50;9.55;;;;;;;23.96;64.06;97987.63;4992478;28;20563;-62
2022/07/28 03:55:53;;;;;;;10.85;9.85;;;;;;;23.92;64.42;97978.44;4992875;28;20318;-62
2022/07/28 03:58:20;;;;;;;11.18;10.18;;;;;;;23.96;64.46;97984.97;4993267;28;20258;-62
2022/07/28 04:00:46;;;;;;;10.57;9.50;;;;;;;23.93;64.17;97962.41;4992789;28;20175;-62
2022/07/28 04:03:12;;;;;;;11.60;10.43;;;;;;;23.99;64.41;97982.75;5007817;28;20317;-62
2022/07/28 04:05:38;;;;;;;11.10;9.95;;;;;;;24.02;64.26;97987.66;4992759;28;20254;-63
2022/07/28 04:08:04;;;;;;;11.45;9.98;;;;;;;24.09;64.14;97981.34;4992795;28;20183;-62
2022/07/28 04:10:29;;;;;;;11.77;10.52;;;;;;;24.08;64.23;97985.00;4992708;28;20713;-61
2022/07/28 04:12:57;;;;;;;11.60;10.50;;;;;;;24.00;64.14;97994.13;4992913;28;20266;-62
2022/07/28 04:15:25;;;;;;;11.30;10.30;;;;;;;24.00;64.89;97988.84;4992629;28;20180;-61
2022/07/28 04:17:52;;;;;;;10.27;9.35;;;;;;;24.02;64.74;97990.28;4992932;28;20555;-61
2022/07/28 04:20:19;;;;;;;10.35;9.35;;;;;;;24.13;63.78;97987.03;4992605;28;20648;-61
2022/07/28 04:22:45;;;;;;;12.00;10.75;;;;;;;24.12;63.99;97988.06;4992545;28;20199;-62
2022/07/28 04:25:12;;;;;;;11.25;10.20;;;;;;;24.08;64.19;97991.31;4992782;28;20198;-61
2022/07/28 04:27:38;;;;;;;11.38;10.15;;;;;;;24.11;64.10;97986.44;4991225;28;20224;-62
2022/07/28 04:30:13;;;;;;;11.40;10.27;;;;;;;24.14;64.29;97986.03;4992391;28;20171;-63
2022/07/28 04:32:39;;;;;;;11.07;9.98;;;;;;;24.17;64.50;97984.84;4992417;28;20233;-61
2022/07/28 04:35:09;;;;;;;12.05;10.70;;;;;;;24.02;65.21;97993.72;4991250;28;20186;-62
2022/07/28 04:37:37;;;;;;;10.90;9.90;;;;;;;24.21;65.05;97998.25;4992653;28;20213;-62
2022/07/28 04:40:04;;;;;;;12.07;10.05;;;;;;;24.28;64.60;97988.50;4992634;28;20186;-62
2022/07/28 04:42:30;;;;;;;10.65;9.65;;;;;;;24.33;64.61;98001.13;4992577;28;20176;-62
2022/07/28 04:44:55;;;;;;;11.57;10.45;;;;;;;24.33;64.15;98001.91;4992270;28;20214;-62
2022/07/28 04:47:22;;;;;;;13.13;10.27;;;;;;;24.48;63.89;98010.50;4991386;28;20175;-61
2022/07/28 04:49:47;;;;;;;10.98;9.88;;;;;;;24.59;63.72;98020.53;4992270;28;20206;-62
2022/07/28 04:52:14;;;;;;;14.20;10.23;;;;;;;24.68;63.16;98016.63;4992314;28;20619;-62
2022/07/28 04:54:40;;;;;;;11.45;10.38;;;;;;;24.76;62.61;98035.00;4992380;28;20187;-62
2022/07/28 04:57:06;;;;;;;11.35;10.15;;;;;;;24.87;61.99;98030.91;4992210;28;20656;-62
2022/07/28 04:59:31;;;;;;;12.60;10.95;;;;;;;24.91;61.57;98019.69;4992284;28;20179;-62
2022/07/28 05:01:57;;;;;;;11.43;10.13;;;;;;;25.07;60.82;98045.78;4992333;28;20646;-62
2022/07/28 05:04:23;;;;;;;10.55;9.55;;;;;;;25.01;61.45;98046.59;4993797;28;20205;-62
2022/07/28 05:06:48;;;;;;;16.98;10.18;;;;;;;25.02;61.42;98055.34;4996080;28;20648;-62
2022/07/28 05:09:14;;;;;;;11.00;10.00;;;;;;;24.88;61.69;98041.31;4995896;28;20175;-62
2022/07/28 05:11:40;;;;;;;11.45;10.40;;;;;;;24.93;61.87;98046.81;4996093;28;20256;-62
2022/07/28 05:14:05;;;;;;;13.93;10.13;;;;;;;24.94;62.47;98037.00;4995776;28;20190;-62
2022/07/28 05:16:31;;;;;;;10.50;9.60;;;;;;;25.04;62.58;98046.19;4995942;28;20178;-62
2022/07/28 05:18:56;;;;;;;11.95;10.73;;;;;;;25.21;61.00;98049.22;4995739;28;20167;-62
2022/07/28 05:21:22;;;;;;;13.48;10.32;;;;;;;25.17;60.75;98046.19;4994459;28;20181;-62
2022/07/28 05:23:47;;;;;;;10.82;9.23;;;;;;;25.29;60.94;98055.16;4995580;28;20195;-61
2022/07/28 05:26:13;;;;;;;11.50;10.40;;;;;;;25.34;60.84;98055.34;4995541;28;20171;-62
2022/07/28 05:28:39;;;;;;;11.23;10.15;;;;;;;25.46;60.65;98064.28;4995539;28;20198;-62
2022/07/28 05:31:06;;;;;;;10.90;9.57;;;;;;;25.63;60.14;98057.53;4995855;28;20201;-62
2022/07/28 05:33:32;;;;;;;11.35;10.23;;;;;;;25.65;59.49;98068.72;4995249;28;20223;-62
2022/07/28 05:35:58;;;;;;;12.45;11.15;;;;;;;25.65;60.24;98062.63;4995626;28;20674;-62
2022/07/28 05:38:23;;;;;;;10.32;9.52;;;;;;;25.78;59.74;98066.03;4995555;28;20229;-62
2022/07/28 05:40:49;;;;;;;11.20;9.90;;;;;;;25.94;59.42;98068.25;4995582;28;20175;-61
2022/07/28 05:43:15;;;;;;;11.23;10.20;;;;;;;26.05;58.86;98066.78;4993931;28;20560;-61
2022/07/28 05:45:40;;;;;;;12.15;10.70;;;;;;;26.11;58.57;98060.63;4995394;28;20182;-62
2022/07/28 05:48:06;;;;;;;10.98;9.98;;;;;;;26.12;58.37;98065.75;4995375;28;20258;-62
2022/07/28 05:50:31;;;;;;;11.48;10.27;;;;;;;26.22;58.39;98063.44;4995026;28;20175;-62
2022/07/28 05:52:57;;;;;;;12.52;11.32;;;;;;;26.32;58.58;98065.66;4995354;28;20171;-63
2022/07/28 05:55:22;;;;;;;11.48;10.23;;;;;;;26.45;58.50;98066.38;4995103;28;20175;-63
2022/07/28 05:57:48;;;;;;;10.82;9.60;;;;;;;26.56;58.05;98068.41;4995031;28;20186;-62
2022/07/28 06:00:15;;;;;;;11.10;9.70;;;;;;;26.72;57.29;98065.25;4994890;28;20185;-62
2022/07/28 06:02:44;;;;;;;11.02;9.93;;;;;;;26.74;57.46;98067.66;4994851;28;20180;-63
2022/07/28 06:05:10;;;;;;;10.95;9.85;;;;;;;26.79;56.65;98068.66;4994773;28;20210;-63
2022/07/28 06:07:35;;;;;;;11.40;10.20;;;;;;;26.84;57.15;98068.81;4994792;28;20172;-62
2022/07/28 06:10:01;;;;;;;10.27;9.30;;;;;;;26.81;57.11;98060.44;4994992;28;20170;-63
2022/07/28 06:12:26;;;;;;;10.70;9.80;;;;;;;26.89;56.53;98047.72;4994686;28;20664;-63
2022/07/28 06:14:52;;;;;;;11.05;10.05;;;;;;;27.00;56.26;98060.31;4994086;28;20201;-63
2022/07/28 06:17:17;;;;;;;11.35;10.27;;;;;;;27.06;55.84;98063.94;4994680;28;20175;-62
2022/07/28 06:19:43;;;;;;;12.98;10.27;;;;;;;27.06;56.37;98070.06;4994604;28;20262;-63
2022/07/28 06:22:09;;;;;;;10.88;9.88;;;;;;;27.14;56.07;98072.47;4994791;28;20221;-63
2022/07/28 06:24:35;;;;;;;11.13;10.07;;;;;;;27.20;56.37;98071.63;4994445;28;20191;-63
2022/07/28 06:27:01;;;;;;;10.93;9.82;;;;;;;27.23;55.97;98076.47;4994686;28;20178;-63
2022/07/28 06:29:28;;;;;;;11.40;9.75;;;;;;;27.29;55.57;98072.94;4994357;28;20246;-63
2022/07/28 06:31:54;;;;;;;11.85;10.75;;;;;;;27.41;55.39;98071.19;4994261;28;20572;-63
2022/07/28 06:34:19;;;;;;;11.07;9.90;;;;;;;27.51;55.25;98076.03;4994190;28;20190;-62
2022/07/28 06:36:44;;;;;;;11.50;10.23;;;;;;;27.56;55.49;98070.84;4994262;28;20187;-62
2022/07/28 06:39:11;;;;;;;10.60;9.70;;;;;;;27.60;55.27;98072.88;4994436;28;20258;-61
2022/07/28 06:41:40;;;;;;;10.75;9.75;;;;;;;27.70;55.32;98073.16;4994419;28;20183;-62
2022/07/28 06:44:07;;;;;;;11.27;10.25;;;;;;;27.85;54.31;98068.31;4994270;28;20203;-62
2022/07/28 06:46:32;;;;;;;11.45;10.35;;;;;;;27.98;54.03;98070.03;4994078;28;20307;-62
2022/07/28 06:48:58;;;;;;;12.35;9.68;;;;;;;28.10;53.69;98071.69;4994305;28;20650;-62
2022/07/28 06:51:23;;;;;;;10.15;9.23;;;;;;;28.13;52.65;98051.81;4994056;28;20709;-63
2022/07/28 06:53:49;;;;;;;11.10;10.00;;;;;;;28.34;53.05;98068.09;4993972;28;20175;-62
2022/07/28 06:56:15;;;;;;;11.27;9.88;;;;;;;28.42;52.64;98078.47;4993922;28;20175;-62
2022/07/28 06:58:40;;;;;;;11.23;10.23;;;;;;;28.58;52.90;98066.38;4993897;28;20761;-63
2022/07/28 07:01:07;;;;;;;13.15;10.07;;;;;;;28.72;52.62;98060.63;4994075;28;20279;-62
2022/07/28 07:03:33;;;;;;;11.73;10.25;;;;;;;28.77;51.57;98065.25;4993932;28;20294;-62
2022/07/28 07:05:58;;;;;;;11.48;10.48;;;;;;;28.79;51.23;98069.31;4993739;28;20269;-63
2022/07/28 07:08:24;;;;;;;10.18;9.27;;;;;;;28.84;50.03;98072.13;4992448;28;20171;-62
2022/07/28 07:10:49;;;;;;;10.38;9.55;;;;;;;28.82;49.46;98074.22;4992423;28;20182;-63
2022/07/28 07:13:15;;;;;;;9.82;8.75;;;;;;;28.85;49.65;98073.75;4992352;28;20625;-62
2022/07/28 07:15:40;;;;;;;11.02;9.23;;;;;;;28.88;50.60;98065.31;4993538;28;20171;-62
2022/07/28 07:18:06;;;;;;;15.48;9.63;;;;;;;28.89;50.83;98061.59;4993483;28;20578;-62
2022/07/28 07:20:31;;;;;;;10.30;8.50;;;;;;;28.86;51.34;98062.03;4993478;28;20163;-62
2022/07/28 07:22:57;;;;;;;9.60;8.35;;;;;;;28.92;51.40;98061.13;4993540;28;20660;-62
2022/07/28 07:25:22;;;;;;;11.65;8.98;;;;;;;29.05;51.55;98065.47;4993248;28;20269;-63
2022/07/28 07:27:48;;;;;;;11.02;8.90;;;;;;;29.14;51.83;98067.56;4992494;28;20170;-62
2022/07/28 07:30:14;;;;;;;9.57;8.77;;;;;;;29.36;51.58;98059.81;4993557;28;20542;-62
2022/07/28 07:32:40;;;;;;;9.90;8.82;;;;;;;29.55;51.34;98058.69;4993057;28;20221;-61
2022/07/28 07:35:06;;;;;;;12.88;8.20;;;;;;;29.69;50.60;98060.06;4993444;28;20166;-62
2022/07/28 07:37:32;;;;;;;11.32;8.07;;;;;;;29.64;50.08;98066.09;4993202;28;20233;-62
2022/07/28 07:39:59;;;;;;;9.35;8.20;;;;;;;29.69;50.92;98071.53;4993352;28;20179;-62
2022/07/28 07:42:24;;;;;;;12.18;9.07;;;;;;;29.75;50.14;98067.94;4993319;28;20665;-63
2022/07/28 07:44:50;;;;;;;14.70;8.70;;;;;;;29.73;50.17;98071.88;4992952;28;20672;-62
2022/07/28 07:47:15;;;;;;;12.00;8.77;;;;;;;29.81;50.33;98067.00;4993350;28;20254;-63
2022/07/28 07:49:41;;;;;;;14.57;9.13;;;;;;;29.84;49.57;98074.53;4992928;28;20648;-62
2022/07/28 07:52:06;;;;;;;10.45;8.32;;;;;;;29.99;49.53;98066.84;4993176;28;20174;-63
2022/07/28 07:54:32;;;;;;;13.68;9.00;;;;;;;30.13;49.57;98073.56;4993175;28;20273;-62
2022/07/28 07:56:57;;;;;;;9.75;8.23;;;;;;;30.21;48.43;98073.16;4992878;28;20637;-63
2022/07/28 07:59:23;;;;;;;11.00;8.88;;;;;;;30.34;48.28;98075.56;4992952;28;20186;-63
2022/07/28 08:01:53;;;;;;;13.00;8.90;;;;;;;30.40;48.77;98079.97;4993102;28;20181;-63
2022/07/28 08:04:19;;;;;;;11.43;8.43;;;;;;;30.47;48.47;98075.28;4992998;28;20223;-63
2022/07/28 08:06:45;;;;;;;10.68;8.10;;;;;;;30.46;46.94;98079.00;4993035;28;20570;-63
2022/07/28 08:09:10;;;;;;;10.45;8.95;;;;;;;30.32;47.82;98074.97;4992985;28;20700;-63
2022/07/28 08:11:36;;;;;;;11.32;8.65;;;;;;;30.46;47.76;98078.19;4992717;28;20179;-63
2022/07/28 08:14:01;;;;;;;12.40;8.52;;;;;;;30.56;47.06;98075.72;4992870;28;20167;-63
2022/07/28 08:16:26;;;;;;;9.23;8.30;;;;;;;30.60;47.62;98069.66;4992567;28;20660;-62
2022/07/28 08:18:52;;;;;;;10.38;8.30;;;;;;;30.67;47.09;98070.31;4992637;28;20180;-62
2022/07/28 08:21:18;;;;;;;12.13;8.77;;;;;;;30.83;45.80;98077.56;4991368;28;20186;-62
2022/07/28 08:23:43;;;;;;;19.58;9.48;;;;;;;30.93;46.35;98079.59;4992678;28;20227;-63
2022/07/28 08:26:09;;;;;;;10.82;7.90;;;;;;;31.03;46.59;98067.22;4992537;28;20174;-63
2022/07/28 08:28:34;;;;;;;9.88;8.27;;;;;;;31.02;46.13;98072.81;4992578;28;20175;-64
2022/07/28 08:31:00;;;;;;;10.63;7.68;;;;;;;30.99;47.20;98071.44;4992700;28;20178;-63
2022/07/28 08:33:25;;;;;;;9.27;8.38;;;;;;;30.97;47.36;98065.53;4992388;28;20302;-64
2022/07/28 08:35:51;;;;;;;10.60;8.30;;;;;;;31.06;47.66;98080.09;4992461;28;20175;-64
2022/07/28 08:38:16;;;;;;;10.32;8.38;;;;;;;31.15;48.01;98077.81;4993643;28;20209;-64
2022/07/28 08:40:47;;;;;;;9.85;8.55;;;;;;;31.07;46.31;98075.56;4996409;28;20175;-64
2022/07/28 08:43:32;;;;;;;10.07;7.93;;;;;;;31.16;44.68;98088.28;4996439;28;20163;-63
2022/07/28 08:45:59;;;;;;;9.88;8.90;;;;;;;31.20;45.60;98084.13;4996397;28;20213;-64
2022/07/28 08:48:29;;;;;;;9.85;8.20;;;;;;;31.35;46.02;98083.53;4996214;28;20564;-64
2022/07/28 08:50:57;;;;;;;10.38;8.45;;;;;;;31.44;46.65;98082.06;4996123;28;20182;-64
2022/07/28 08:53:23;;;;;;;12.23;8.23;;;;;;;31.58;44.75;98088.66;4996227;28;20175;-64
2022/07/28 08:55:50;;;;;;;9.27;8.00;;;;;;;31.64;44.56;98080.47;4996285;28;20175;-64
2022/07/28 08:58:16;;;;;;;9.15;8.05;;;;;;;31.60;45.05;98082.03;4996111;28;20673;-64
2022/07/28 09:00:42;;;;;;;9.75;8.50;;;;;;;31.66;45.84;98091.75;4996334;28;20265;-64
2022/07/28 09:03:10;;;;;;;9.75;8.35;;;;;;;31.77;45.44;98088.19;4995839;28;20214;-64
2022/07/28 09:05:38;;;;;;;9.13;8.23;;;;;;;31.87;43.42;98093.69;4994699;28;20561;-64
2022/07/28 09:08:05;;;;;;;11.93;8.60;;;;;;;31.93;44.53;98090.00;4995915;28;20175;-64
2022/07/28 09:10:30;;;;;;;9.00;8.15;;;;;;;32.01;44.32;98084.22;4996152;28;20245;-64
2022/07/28 09:12:56;;;;;;;8.73;7.53;;;;;;;32.05;44.18;98088.03;4995909;28;20203;-64
2022/07/28 09:15:21;;;;;;;10.10;7.75;;;;;;;32.05;43.59;98079.97;4995804;28;20164;-64
2022/07/28 09:17:47;;;;;;;10.13;7.82;;;;;;;32.13;43.67;98087.56;4995698;28;20180;-64
2022/07/28 09:20:12;;;;;;;8.93;8.05;;;;;;;32.11;42.98;98084.34;4995785;28;20178;-64
2022/07/28 09:23:16;;;;;;;10.10;7.88;;;;;;;31.92;44.02;98083.03;4995651;28;20614;-64
2022/07/28 09:25:42;;;;;;;9.50;8.13;;;;;;;31.95;43.38;98082.53;4935711;29;20647;-64
2022/07/28 09:28:08;;;;;;;10.13;7.97;;;;;;;32.00;43.50;98077.25;4935578;29;20185;-65
2022/07/28 09:30:37;;;;;;;10.18;7.95;;;;;;;32.10;42.71;98084.59;4963164;28;20195;-64
2022/07/28 09:33:20;;;;;;;11.02;7.70;;;;;;;32.11;44.09;98089.69;4995375;28;20219;-64
2022/07/28 09:35:47;;;;;;;9.40;7.50;;;;;;;32.25;42.44;98084.81;4995612;28;20171;-64
2022/07/28 09:38:13;;;;;;;9.50;8.15;;;;;;;32.33;43.33;98087.03;4995536;28;20171;-63
2022/07/28 09:40:39;;;;;;;11.73;7.53;;;;;;;32.37;43.99;98082.81;4995240;28;20194;-64
2022/07/28 09:43:05;;;;;;;9.07;7.55;;;;;;;32.45;42.62;98083.16;4995556;28;20179;-64
2022/07/28 09:45:30;;;;;;;8.65;7.63;;;;;;;32.55;43.07;98080.59;4994339;28;20221;-64
2022/07/28 09:48:16;;;;;;;10.20;7.53;;;;;;;32.41;41.95;98084.72;4995254;28;20602;-64
2022/07/28 09:50:42;;;;;;;9.98;7.70;;;;;;;32.57;42.50;98078.47;4993897;28;20195;-64
2022/07/28 09:53:20;;;;;;;7.45;6.85;;;;;;;32.57;41.82;98083.81;4995112;28;20202;-64
2022/07/28 09:55:59;;;;;;;8.07;7.28;;;;;;;32.68;40.77;98074.81;4995324;28;20221;-64
2022/07/28 09:58:26;;;;;;;11.98;7.68;;;;;;;32.74;41.09;98081.84;4995391;28;20170;-64
2022/07/28 10:01:12;;;;;;;8.68;7.80;;;;;;;32.78;40.73;98085.69;4995210;28;20183;-64
2022/07/28 10:03:40;;;;;;;8.20;7.40;;;;;;;32.86;40.34;98077.16;4995060;28;20590;-64
2022/07/28 10:06:07;;;;;;;8.80;6.95;;;;;;;33.00;40.88;98069.53;4995103;28;20190;-64
2022/07/28 10:08:48;;;;;;;7.75;7.05;;;;;;;33.13;40.51;98072.59;4995576;28;20193;-64
2022/07/28 10:11:20;;;;;;;9.13;7.35;;;;;;;33.18;40.01;98082.53;4994779;28;20183;-64
2022/07/28 10:13:54;;;;;;;8.85;6.85;;;;;;;33.17;40.05;98078.25;4995023;28;20163;-64
2022/07/28 10:16:20;;;;;;;9.43;7.85;;;;;;;33.01;39.02;98063.91;4994880;28;20667;-64
2022/07/28 10:18:46;;;;;;;10.73;6.85;;;;;;;33.10;38.85;98078.44;4994881;28;20198;-64
2022/07/28 10:21:14;;;;;;;7.72;6.80;;;;;;;33.13;38.97;98069.91;4994869;28;20183;-64
2022/07/28 10:23:48;;;;;;;7.97;7.28;;;;;;;33.35;38.54;98084.03;4994454;28;20198;-64
2022/07/28 10:26:14;;;;;;;10.88;7.35;;;;;;;33.38;38.88;98083.53;4994785;28;20167;-64
2022/07/28 10:28:46;;;;;;;8.85;7.07;;;;;;;33.36;38.70;98074.94;4994372;28;20183;-64
2022/07/28 10:31:14;;;;;;;11.15;6.93;;;;;;;33.53;38.35;98075.59;4994477;28;20167;-64
2022/07/28 10:33:47;;;;;;;8.77;7.13;;;;;;;33.47;37.31;98067.75;4993795;28;20231;-64
2022/07/28 10:36:15;;;;;;;8.70;7.40;;;;;;;33.62;38.20;98057.91;4994376;28;20164;-64
2022/07/28 10:38:41;;;;;;;10.18;7.50;;;;;;;33.74;38.21;98063.88;4994234;28;20221;-64
2022/07/28 10:41:07;;;;;;;8.20;6.97;;;;;;;33.80;37.93;98052.13;4994236;28;20203;-64
2022/07/28 10:43:34;;;;;;;11.15;8.00;;;;;;;33.87;38.08;98044.63;4994360;28;20226;-64
2022/07/28 10:46:00;;;;;;;8.23;7.38;;;;;;;34.04;38.47;98049.81;4994453;28;20269;-64
2022/07/28 10:48:26;;;;;;;7.93;7.15;;;;;;;34.12;37.83;98036.69;4994108;28;20182;-64
2022/07/28 10:50:53;;;;;;;10.18;6.72;;;;;;;34.37;37.34;98055.59;4994045;28;20171;-64
2022/07/28 10:53:45;;;;;;;10.85;6.85;;;;;;;34.54;36.44;98048.13;4994000;28;20186;-64
2022/07/28 10:56:24;;;;;;;8.18;7.32;;;;;;;34.62;36.28;98050.28;4994253;28;20254;-64
2022/07/28 10:59:30;;;;;;;7.97;6.88;;;;;;;34.88;36.28;98037.69;4994113;28;20165;-64
2022/07/28 11:01:56;;;;;;;9.70;7.03;;;;;;;35.12;35.30;98033.38;4933819;29;20227;-64
2022/07/28 11:04:39;;;;;;;10.20;6.70;;;;;;;35.35;35.13;98028.28;4981008;28;20630;-64
2022/07/28 11:07:12;;;;;;;7.28;6.68;;;;;;;35.45;34.59;98039.03;4993966;28;20183;-64
2022/07/28 11:09:37;;;;;;;8.55;6.70;;;;;;;35.64;33.67;98036.53;4993721;28;20538;-64
2022/07/28 11:12:03;;;;;;;7.40;6.65;;;;;;;35.60;32.72;98014.75;5008733;28;20788;-64
2022/07/28 11:14:34;;;;;;;7.45;6.75;;;;;;;35.60;32.56;98038.97;4993468;28;20175;-65
2022/07/28 11:17:00;;;;;;;7.55;6.85;;;;;;;35.60;33.26;98038.97;4993781;28;20262;-64
2022/07/28 11:19:44;;;;;;;7.55;6.43;;;;;;;35.52;33.00;98038.72;5008629;28;20278;-64
2022/07/28 11:22:20;;;;;;;10.65;6.68;;;;;;;35.37;33.00;98042.25;4993754;28;20551;-64
2022/07/28 11:25:04;;;;;;;7.55;6.85;;;;;;;35.45;33.98;98032.81;4993322;28;20739;-64
2022/07/28 11:27:39;;;;;;;7.43;6.22;;;;;;;35.71;33.58;98029.81;4993329;28;20664;-64
2022/07/28 11:30:27;;;;;;;6.45;5.85;;;;;;;35.95;31.62;98043.47;4993581;28;20305;-64
2022/07/28 11:32:56;;;;;;;7.60;6.43;;;;;;;35.87;31.94;98041.34;4983639;28;20234;-64
2022/07/28 11:35:22;;;;;;;7.05;6.50;;;;;;;35.71;31.98;98037.06;4993435;28;20205;-64